ΕΜΥ, Εθνική Μετεωρολογική Υπηρεσία - Δελτία Καιρού, Προγνώσεις

ΑΕΡΟΝΑΥΤΙΛΙΑ

GREEK AIRPORTS CODES

LGLE 190500Z AUTO 36015KT //// -RA ////// 10/01 Q1017 RE// RMK 0.0MM=

EUROPEAN AIRPORTS CODES

LFPO 190530Z 34006KT 9999 BKN040 02/00 Q1036 NOSIG=